createdAt,value
2023-04-20T00:00:19.460Z,4.71
2023-04-20T00:02:47.399Z,4.74
2023-04-20T00:05:15.069Z,4.80
2023-04-20T00:07:42.973Z,4.74
2023-04-20T00:10:11.220Z,4.71
2023-04-20T00:12:38.735Z,4.71
2023-04-20T00:15:08.776Z,4.77
2023-04-20T00:17:38.414Z,4.83
2023-04-20T00:20:07.879Z,4.86
2023-04-20T00:22:35.956Z,4.85
2023-04-20T00:25:03.738Z,4.94
2023-04-20T00:27:31.245Z,4.94
2023-04-20T00:29:58.748Z,4.93
2023-04-20T00:32:28.444Z,4.92
2023-04-20T00:34:56.166Z,4.96
2023-04-20T00:37:25.697Z,4.93
2023-04-20T00:39:56.250Z,4.88
2023-04-20T00:42:25.717Z,4.93
2023-04-20T00:44:53.269Z,4.86
2023-04-20T00:47:22.554Z,4.85
2023-04-20T00:49:51.538Z,4.86
2023-04-20T00:52:19.060Z,4.83
2023-04-20T00:54:46.648Z,4.84
2023-04-20T00:57:15.179Z,4.72
2023-04-20T00:59:42.699Z,4.82
2023-04-20T01:02:10.332Z,4.68
2023-04-20T01:04:38.091Z,4.71
2023-04-20T01:07:06.988Z,4.67
2023-04-20T01:09:34.463Z,4.72
2023-04-20T01:12:02.541Z,4.63
2023-04-20T01:14:30.020Z,4.59
2023-04-20T01:16:58.457Z,4.51
2023-04-20T01:19:26.633Z,4.62
2023-04-20T01:21:54.758Z,4.68
2023-04-20T01:24:23.592Z,4.69
2023-04-20T01:26:52.115Z,4.76
2023-04-20T01:29:19.677Z,4.73
2023-04-20T01:31:47.318Z,4.80
2023-04-20T01:34:15.193Z,4.80
2023-04-20T01:36:42.687Z,4.84
2023-04-20T01:39:10.304Z,4.83
2023-04-20T01:41:39.259Z,4.91
2023-04-20T01:44:06.790Z,4.97
2023-04-20T01:46:34.282Z,4.99
2023-04-20T01:49:01.858Z,4.94
2023-04-20T01:51:30.318Z,4.93
2023-04-20T01:53:57.935Z,4.82
2023-04-20T01:56:25.527Z,4.83
2023-04-20T01:58:54.391Z,4.77
2023-04-20T02:01:22.160Z,4.78
2023-04-20T02:03:50.416Z,4.84
2023-04-20T02:06:18.165Z,4.74
2023-04-20T02:08:45.664Z,4.84
2023-04-20T02:11:13.194Z,4.86
2023-04-20T02:13:40.694Z,4.80
2023-04-20T02:16:09.556Z,4.82
2023-04-20T02:18:37.332Z,4.70
2023-04-20T02:21:05.826Z,4.78
2023-04-20T02:23:33.353Z,4.72
2023-04-20T02:26:00.826Z,4.68
2023-04-20T02:28:28.317Z,4.65
2023-04-20T02:30:56.123Z,4.74
2023-04-20T02:33:24.996Z,4.78
2023-04-20T02:35:54.408Z,4.86
2023-04-20T02:38:21.916Z,4.89
2023-04-20T02:40:49.417Z,4.89
2023-04-20T02:43:18.031Z,4.90
2023-04-20T02:45:45.859Z,4.96
2023-04-20T02:48:13.715Z,4.98
2023-04-20T02:50:44.040Z,4.99
2023-04-20T02:53:17.327Z,5.03
2023-04-20T02:55:49.282Z,5.04
2023-04-20T02:58:37.329Z,5.08
2023-04-20T03:01:15.905Z,5.01
2023-04-20T03:03:45.040Z,4.94
2023-04-20T03:06:14.588Z,4.92
2023-04-20T03:08:47.122Z,4.88
2023-04-20T03:11:39.599Z,4.77
2023-04-20T03:14:07.136Z,4.91
2023-04-20T03:16:35.393Z,4.86
2023-04-20T03:19:03.096Z,4.93
2023-04-20T03:21:33.962Z,4.93
2023-04-20T03:24:01.960Z,4.89
2023-04-20T03:26:29.788Z,4.82
2023-04-20T03:29:18.336Z,4.84
2023-04-20T03:31:46.438Z,4.78
2023-04-20T03:34:14.046Z,4.76
2023-04-20T03:36:43.513Z,4.80
2023-04-20T03:39:11.426Z,4.84
2023-04-20T03:41:38.961Z,4.80
2023-04-20T03:44:07.145Z,4.72
2023-04-20T03:46:34.675Z,4.64
2023-04-20T03:49:03.317Z,4.55
2023-04-20T03:51:31.255Z,4.50
2023-04-20T03:54:00.327Z,4.51
2023-04-20T03:56:28.440Z,4.49
2023-04-20T03:58:57.357Z,4.48
2023-04-20T04:01:26.959Z,4.41
2023-04-20T04:03:54.686Z,4.34
2023-04-20T04:06:22.350Z,4.36
2023-04-20T04:08:50.472Z,4.49
2023-04-20T04:11:19.337Z,4.50
2023-04-20T04:13:47.636Z,4.42
2023-04-20T04:16:15.645Z,4.52
2023-04-20T04:18:44.614Z,4.55
2023-04-20T04:21:12.181Z,4.37
2023-04-20T04:23:43.254Z,4.39
2023-04-20T04:26:33.591Z,4.38
2023-04-20T04:29:02.005Z,4.43
2023-04-20T04:31:29.587Z,4.49
2023-04-20T04:34:03.717Z,4.56
2023-04-20T04:36:38.417Z,4.57
2023-04-20T04:39:09.138Z,4.57
2023-04-20T04:41:39.058Z,4.57
2023-04-20T04:44:17.492Z,4.52
2023-04-20T04:46:47.384Z,4.54
2023-04-20T04:49:15.409Z,4.50
2023-04-20T04:51:43.057Z,4.49
2023-04-20T04:54:11.294Z,4.48
2023-04-20T04:56:40.104Z,4.48
2023-04-20T04:59:07.565Z,4.42
2023-04-20T05:01:35.125Z,4.43
2023-04-20T05:04:02.849Z,4.46
2023-04-20T05:06:30.855Z,4.47
2023-04-20T05:08:58.323Z,4.47
2023-04-20T05:11:25.939Z,4.45
2023-04-20T05:13:54.925Z,4.46
2023-04-20T05:16:22.472Z,4.40
2023-04-20T05:18:50.030Z,4.51
2023-04-20T05:21:17.539Z,4.49
2023-04-20T05:23:45.090Z,4.46
2023-04-20T05:26:12.613Z,4.52
2023-04-20T05:28:40.092Z,4.60
2023-04-20T05:31:08.925Z,4.63
2023-04-20T05:33:36.434Z,4.60
2023-04-20T05:36:04.264Z,4.66
2023-04-20T05:38:31.835Z,4.61
2023-04-20T05:40:59.444Z,4.69
2023-04-20T05:43:26.960Z,4.77
2023-04-20T05:45:54.540Z,4.83
2023-04-20T05:48:23.438Z,4.86
2023-04-20T05:50:51.084Z,4.92
2023-04-20T05:53:18.643Z,4.95
2023-04-20T05:55:46.276Z,4.99
2023-04-20T05:58:13.767Z,5.00
2023-04-20T06:00:41.524Z,5.10
2023-04-20T06:03:09.245Z,5.15
2023-04-20T06:05:38.276Z,5.21
2023-04-20T06:08:05.892Z,5.13
2023-04-20T06:10:34.312Z,5.32
2023-04-20T06:13:01.958Z,5.35
2023-04-20T06:15:29.532Z,5.50
2023-04-20T06:17:57.110Z,5.59
2023-04-20T06:20:24.700Z,5.67
2023-04-20T06:22:53.889Z,5.71
2023-04-20T06:25:21.540Z,5.70
2023-04-20T06:27:51.282Z,5.81
2023-04-20T06:30:20.021Z,5.91
2023-04-20T06:32:47.546Z,6.04
2023-04-20T06:35:15.188Z,6.05
2023-04-20T06:37:42.710Z,6.17
2023-04-20T06:40:13.183Z,6.27
2023-04-20T06:42:42.005Z,6.36
2023-04-20T06:45:10.372Z,6.32
2023-04-20T06:47:37.917Z,6.33
2023-04-20T06:50:09.623Z,6.40
2023-04-20T06:52:38.918Z,6.51
2023-04-20T06:55:06.978Z,6.58
2023-04-20T06:57:37.303Z,6.66
2023-04-20T07:00:06.130Z,6.73
2023-04-20T07:02:43.125Z,6.84
2023-04-20T07:05:11.537Z,6.94
2023-04-20T07:07:39.137Z,6.90
2023-04-20T07:10:07.883Z,6.92
2023-04-20T07:12:37.453Z,6.97
2023-04-20T07:15:06.071Z,6.98
2023-04-20T07:17:33.844Z,7.02
2023-04-20T07:20:07.280Z,7.05
2023-04-20T07:22:34.895Z,7.22
2023-04-20T07:25:03.001Z,7.28
2023-04-20T07:27:30.921Z,7.38
2023-04-20T07:30:00.764Z,7.31
2023-04-20T07:32:28.373Z,7.26
2023-04-20T07:34:55.891Z,7.31
2023-04-20T07:37:25.163Z,7.32
2023-04-20T07:39:54.170Z,7.41
2023-04-20T07:42:22.116Z,7.60
2023-04-20T07:44:49.690Z,7.79
2023-04-20T07:47:18.500Z,7.73
2023-04-20T07:49:46.127Z,7.70
2023-04-20T07:52:17.018Z,7.94
2023-04-20T07:54:45.189Z,8.08
2023-04-20T07:57:12.817Z,8.30
2023-04-20T07:59:40.727Z,8.42
2023-04-20T08:02:08.979Z,8.61
2023-04-20T08:04:38.867Z,8.72
2023-04-20T08:07:06.692Z,8.57
2023-04-20T08:09:34.213Z,8.47
2023-04-20T08:12:01.755Z,8.06
2023-04-20T08:14:29.462Z,8.17
2023-04-20T08:16:57.060Z,8.28
2023-04-20T08:19:24.592Z,8.29
2023-04-20T08:21:54.249Z,8.26
2023-04-20T08:24:21.756Z,8.25
2023-04-20T08:26:49.471Z,8.17
2023-04-20T08:29:17.358Z,8.09
2023-04-20T08:31:44.924Z,8.11
2023-04-20T08:34:12.855Z,8.20
2023-04-20T08:36:40.573Z,8.20
2023-04-20T08:39:11.878Z,8.20
2023-04-20T08:41:39.458Z,8.24
2023-04-20T08:44:08.382Z,8.34
2023-04-20T08:46:36.192Z,8.30
2023-04-20T08:49:04.130Z,8.22
2023-04-20T08:51:32.434Z,8.18
2023-04-20T08:54:05.265Z,8.12
2023-04-20T08:56:37.200Z,8.02
2023-04-20T08:59:05.748Z,7.91
2023-04-20T09:01:36.312Z,7.90
2023-04-20T09:04:17.440Z,7.95
2023-04-20T09:06:48.021Z,7.98
2023-04-20T09:09:15.533Z,8.00
2023-04-20T09:11:44.590Z,7.90
2023-04-20T09:14:14.418Z,7.82
2023-04-20T09:16:50.456Z,7.93
2023-04-20T09:19:22.711Z,7.93
2023-04-20T09:21:50.893Z,7.86
2023-04-20T09:24:19.884Z,7.91
2023-04-20T09:26:49.053Z,8.07
2023-04-20T09:29:17.567Z,8.12
2023-04-20T09:31:45.278Z,8.10
2023-04-20T09:34:13.659Z,8.15
2023-04-20T09:36:42.565Z,8.17
2023-04-20T09:39:11.698Z,8.19
2023-04-20T09:41:40.463Z,8.22
2023-04-20T09:44:10.030Z,8.25
2023-04-20T09:46:39.713Z,8.22
2023-04-20T09:49:08.768Z,8.18
2023-04-20T09:51:38.464Z,8.30
2023-04-20T09:54:07.457Z,8.25
2023-04-20T09:56:36.149Z,8.41
2023-04-20T09:59:04.657Z,8.53
2023-04-20T10:01:35.928Z,8.56
2023-04-20T10:04:07.294Z,8.63
2023-04-20T10:06:36.504Z,8.72
2023-04-20T10:09:05.916Z,8.83
2023-04-20T10:11:45.054Z,8.84
2023-04-20T10:14:18.278Z,8.93
2023-04-20T10:16:48.095Z,9.00
2023-04-20T10:19:15.638Z,9.06
2023-04-20T10:21:47.654Z,9.09
2023-04-20T10:24:17.099Z,9.06
2023-04-20T10:26:47.232Z,8.97
2023-04-20T10:29:24.798Z,9.07
2023-04-20T10:31:54.053Z,9.13
2023-04-20T10:34:30.969Z,9.11
2023-04-20T10:37:08.325Z,9.13
2023-04-20T10:39:37.963Z,9.12
2023-04-20T10:42:05.567Z,9.13
2023-04-20T10:44:35.297Z,8.96
2023-04-20T10:47:04.116Z,8.96
2023-04-20T10:49:32.265Z,8.95
2023-04-20T10:51:59.892Z,8.98
2023-04-20T10:54:28.889Z,9.01
2023-04-20T10:56:57.052Z,9.05
2023-04-20T10:59:25.731Z,9.13
2023-04-20T11:01:54.050Z,9.10
2023-04-20T11:04:32.753Z,9.16
2023-04-20T11:07:07.025Z,9.18
2023-04-20T11:09:35.142Z,9.25
2023-04-20T11:12:04.095Z,9.30
2023-04-20T11:14:32.156Z,9.40
2023-04-20T11:17:04.308Z,9.48
2023-04-20T11:19:34.610Z,9.47
2023-04-20T11:22:02.741Z,9.34
2023-04-20T11:24:31.682Z,9.34
2023-04-20T11:26:59.658Z,9.31
2023-04-20T11:29:34.756Z,9.32
2023-04-20T11:32:04.913Z,9.31
2023-04-20T11:34:34.830Z,9.31
2023-04-20T11:37:05.126Z,9.25
2023-04-20T11:39:33.544Z,9.20
2023-04-20T11:42:02.025Z,9.18
2023-04-20T11:44:29.619Z,9.25
2023-04-20T11:46:58.001Z,9.21
2023-04-20T11:49:26.592Z,9.22
2023-04-20T11:51:55.920Z,9.25
2023-04-20T11:54:24.036Z,9.31
2023-04-20T11:56:52.009Z,9.39
2023-04-20T11:59:20.989Z,9.46
2023-04-20T12:01:49.053Z,9.47
2023-04-20T12:04:17.198Z,9.51
2023-04-20T12:06:45.124Z,9.47
2023-04-20T12:09:14.820Z,9.45
2023-04-20T12:11:42.394Z,9.52
2023-04-20T12:14:09.957Z,9.57
2023-04-20T12:16:37.503Z,9.71
2023-04-20T12:19:05.088Z,9.68
2023-04-20T12:21:33.008Z,9.62
2023-04-20T12:24:00.507Z,9.62
2023-04-20T12:26:37.934Z,9.62
2023-04-20T12:29:07.088Z,9.65
2023-04-20T12:31:35.577Z,9.58
2023-04-20T12:34:03.335Z,9.55
2023-04-20T12:36:31.967Z,9.50
2023-04-20T12:38:59.638Z,9.49
2023-04-20T12:41:27.117Z,9.42
2023-04-20T12:43:56.143Z,9.28
2023-04-20T12:46:23.722Z,9.33
2023-04-20T12:48:51.650Z,9.37
2023-04-20T12:51:19.187Z,9.32
2023-04-20T12:53:46.739Z,9.27
2023-04-20T12:56:14.734Z,9.31
2023-04-20T12:58:42.229Z,9.31
2023-04-20T13:01:11.151Z,9.38
2023-04-20T13:03:38.854Z,9.45
2023-04-20T13:06:07.192Z,9.53
2023-04-20T13:08:36.982Z,9.63
2023-04-20T13:11:04.809Z,9.61
2023-04-20T13:13:32.359Z,9.62
2023-04-20T13:16:00.956Z,9.66
2023-04-20T13:18:29.834Z,9.68
2023-04-20T13:20:57.344Z,9.70
2023-04-20T13:23:24.972Z,9.79
2023-04-20T13:25:52.549Z,9.75
2023-04-20T13:28:20.430Z,9.82
2023-04-20T13:30:48.301Z,10.00
2023-04-20T13:33:16.007Z,10.09
2023-04-20T13:35:44.932Z,10.00
2023-04-20T13:38:12.456Z,10.09
2023-04-20T13:40:40.120Z,10.19
2023-04-20T13:43:07.763Z,10.35
2023-04-20T13:45:35.315Z,10.45
2023-04-20T13:48:02.919Z,10.51
2023-04-20T13:50:30.461Z,10.54
2023-04-20T13:52:59.246Z,10.61
2023-04-20T13:55:27.239Z,10.59
2023-04-20T13:57:54.786Z,10.44
2023-04-20T14:00:23.609Z,10.55
2023-04-20T14:02:51.289Z,10.56
2023-04-20T14:05:18.831Z,10.66
2023-04-20T14:07:46.329Z,10.77
2023-04-20T14:10:15.215Z,10.82
2023-04-20T14:12:42.750Z,10.88
2023-04-20T14:15:11.258Z,10.94
2023-04-20T14:17:38.830Z,11.01
2023-04-20T14:20:07.838Z,11.06
2023-04-20T14:22:36.678Z,11.18
2023-04-20T14:25:04.610Z,11.20
2023-04-20T14:27:34.040Z,11.20
2023-04-20T14:30:01.560Z,11.22
2023-04-20T14:32:30.989Z,11.31
2023-04-20T14:34:58.548Z,11.31
2023-04-20T14:37:27.325Z,11.42
2023-04-20T14:39:55.016Z,11.38
2023-04-20T14:42:23.105Z,11.42
2023-04-20T14:44:52.337Z,11.33
2023-04-20T14:47:20.586Z,11.29
2023-04-20T14:49:48.201Z,11.19
2023-04-20T14:52:15.715Z,11.23
2023-04-20T14:54:43.219Z,11.13
2023-04-20T14:57:10.707Z,11.13
2023-04-20T14:59:41.230Z,11.12
2023-04-20T15:02:10.173Z,11.10
2023-04-20T15:04:37.911Z,11.17
2023-04-20T15:07:05.550Z,11.17
2023-04-20T15:09:33.937Z,11.11
2023-04-20T15:12:01.824Z,10.95
2023-04-20T15:14:29.418Z,11.00
2023-04-20T15:16:57.255Z,11.03
2023-04-20T15:19:26.253Z,10.95
2023-04-20T15:21:53.718Z,10.94
2023-04-20T15:24:21.235Z,10.96
2023-04-20T15:26:48.722Z,10.95
2023-04-20T15:29:16.385Z,10.91
2023-04-20T15:31:45.657Z,10.85
2023-04-20T15:34:15.358Z,10.77
2023-04-20T15:36:44.390Z,10.85
2023-04-20T15:39:12.441Z,10.82
2023-04-20T15:41:40.078Z,10.83
2023-04-20T15:44:07.634Z,10.82
2023-04-20T15:46:35.208Z,10.81
2023-04-20T15:49:02.806Z,10.78
2023-04-20T15:51:30.304Z,10.79
2023-04-20T15:53:59.132Z,10.71
2023-04-20T15:56:26.656Z,10.73
2023-04-20T15:58:54.208Z,10.73
2023-04-20T16:01:21.989Z,10.76
2023-04-20T16:03:50.668Z,10.75
2023-04-20T16:06:18.368Z,10.70
2023-04-20T16:08:47.461Z,10.69
2023-04-20T16:11:16.470Z,10.62
2023-04-20T16:13:43.984Z,10.65
2023-04-20T16:16:11.607Z,10.68
2023-04-20T16:18:39.101Z,10.68
2023-04-20T16:21:06.696Z,10.65
2023-04-20T16:23:34.176Z,10.68
2023-04-20T16:26:01.883Z,10.62
2023-04-20T16:28:31.609Z,10.64
2023-04-20T16:30:59.877Z,10.59
2023-04-20T16:33:28.104Z,10.61
2023-04-20T16:35:55.813Z,10.70
2023-04-20T16:38:23.591Z,10.61
2023-04-20T16:40:51.907Z,10.53
2023-04-20T16:43:19.423Z,10.61
2023-04-20T16:45:49.090Z,10.61
2023-04-20T16:48:16.562Z,10.63
2023-04-20T16:50:44.085Z,10.56
2023-04-20T16:53:11.601Z,10.52
2023-04-20T16:55:39.094Z,10.51
2023-04-20T16:58:06.635Z,10.50
2023-04-20T17:00:34.619Z,10.48
2023-04-20T17:03:06.739Z,10.49
2023-04-20T17:05:34.393Z,10.46
2023-04-20T17:08:01.983Z,10.36
2023-04-20T17:10:29.469Z,10.35
2023-04-20T17:12:56.946Z,10.43
2023-04-20T17:15:24.634Z,10.41
2023-04-20T17:17:52.168Z,10.37
2023-04-20T17:20:21.273Z,10.44
2023-04-20T17:22:48.868Z,10.27
2023-04-20T17:25:16.378Z,10.22
2023-04-20T17:27:43.874Z,10.10
2023-04-20T17:30:12.320Z,9.97
2023-04-20T17:32:39.807Z,9.90
2023-04-20T17:35:07.886Z,9.92
2023-04-20T17:37:37.230Z,9.75
2023-04-20T17:40:06.293Z,9.76
2023-04-20T17:42:33.927Z,9.73
2023-04-20T17:45:01.416Z,9.72
2023-04-20T17:47:31.105Z,9.57
2023-04-20T17:49:59.773Z,9.53
2023-04-20T17:52:27.284Z,9.50
2023-04-20T17:54:56.229Z,9.50
2023-04-20T17:57:23.850Z,9.45
2023-04-20T17:59:51.749Z,9.42
2023-04-20T18:02:20.135Z,9.33
2023-04-20T18:04:47.846Z,9.34
2023-04-20T18:07:16.901Z,9.22
2023-04-20T18:09:44.448Z,9.20
2023-04-20T18:12:13.299Z,9.18
2023-04-20T18:14:42.368Z,9.07
2023-04-20T18:17:09.843Z,9.03
2023-04-20T18:19:37.319Z,8.98
2023-04-20T18:22:05.041Z,8.99
2023-04-20T18:24:32.534Z,8.95
2023-04-20T18:27:00.783Z,8.93
2023-04-20T18:29:29.885Z,8.88
2023-04-20T18:31:59.334Z,8.84
2023-04-20T18:34:29.951Z,8.74
2023-04-20T18:36:57.921Z,8.75
2023-04-20T18:39:25.745Z,8.75
2023-04-20T18:41:53.232Z,8.77
2023-04-20T18:44:21.640Z,8.68
2023-04-20T18:46:50.928Z,8.62
2023-04-20T18:49:18.494Z,8.58
2023-04-20T18:51:46.055Z,8.59
2023-04-20T18:54:13.537Z,8.54
2023-04-20T18:56:41.174Z,8.52
2023-04-20T18:59:10.598Z,8.55
2023-04-20T19:01:40.578Z,8.55
2023-04-20T19:04:10.101Z,8.43
2023-04-20T19:06:37.747Z,8.41
2023-04-20T19:09:07.857Z,8.47
2023-04-20T19:11:36.037Z,8.44
2023-04-20T19:14:04.426Z,8.44
2023-04-20T19:16:35.077Z,8.45
2023-04-20T19:19:03.721Z,8.40
2023-04-20T19:21:33.148Z,8.44
2023-04-20T19:24:00.684Z,8.48
2023-04-20T19:26:28.257Z,8.45
2023-04-20T19:28:57.697Z,8.45
2023-04-20T19:31:26.391Z,8.46
2023-04-20T19:33:56.516Z,8.42
2023-04-20T19:36:25.030Z,8.42
2023-04-20T19:38:53.865Z,8.34
2023-04-20T19:41:21.487Z,8.34
2023-04-20T19:43:48.974Z,8.36
2023-04-20T19:46:17.120Z,8.36
2023-04-20T19:48:44.832Z,8.30
2023-04-20T19:51:12.511Z,8.31
2023-04-20T19:53:40.036Z,8.27
2023-04-20T19:56:08.895Z,8.26
2023-04-20T19:58:36.423Z,8.27
2023-04-20T20:01:04.833Z,8.26
2023-04-20T20:03:32.595Z,8.22
2023-04-20T20:06:00.648Z,8.22
2023-04-20T20:08:28.218Z,8.18
2023-04-20T20:10:55.672Z,8.19
2023-04-20T20:13:24.783Z,8.16
2023-04-20T20:15:53.526Z,8.17
2023-04-20T20:18:21.496Z,8.17
2023-04-20T20:20:50.439Z,8.09
2023-04-20T20:23:18.122Z,8.11
2023-04-20T20:25:45.604Z,8.01
2023-04-20T20:28:13.093Z,7.97
2023-04-20T20:30:45.043Z,7.98
2023-04-20T20:33:12.660Z,7.97
2023-04-20T20:35:40.835Z,7.93
2023-04-20T20:38:08.759Z,7.91
2023-04-20T20:40:36.404Z,7.79
2023-04-20T20:43:04.604Z,7.76
2023-04-20T20:45:32.515Z,7.85
2023-04-20T20:48:01.708Z,7.86
2023-04-20T20:50:29.295Z,7.83
2023-04-20T20:52:56.809Z,7.85
2023-04-20T20:55:24.519Z,7.84
2023-04-20T20:57:52.281Z,7.85
2023-04-20T21:00:20.232Z,7.80
2023-04-20T21:02:47.856Z,7.82
2023-04-20T21:05:16.839Z,7.79
2023-04-20T21:07:44.471Z,7.79
2023-04-20T21:10:12.488Z,7.78
2023-04-20T21:12:39.967Z,7.78
2023-04-20T21:15:10.070Z,7.74
2023-04-20T21:17:37.630Z,7.73
2023-04-20T21:20:06.273Z,7.72
2023-04-20T21:22:35.103Z,7.71
2023-04-20T21:25:02.571Z,7.70
2023-04-20T21:27:30.067Z,7.68
2023-04-20T21:29:57.561Z,7.59
2023-04-20T21:32:26.408Z,7.66
2023-04-20T21:34:54.299Z,7.60
2023-04-20T21:37:21.853Z,7.52
2023-04-20T21:39:51.444Z,7.46
2023-04-20T21:42:18.951Z,7.38
2023-04-20T21:44:46.508Z,7.28
2023-04-20T21:47:15.534Z,7.29
2023-04-20T21:49:43.782Z,7.26
2023-04-20T21:52:11.314Z,7.26
2023-04-20T21:54:40.767Z,7.27
2023-04-20T21:57:10.003Z,7.27
2023-04-20T21:59:37.565Z,7.28
2023-04-20T22:02:05.142Z,7.40
2023-04-20T22:04:35.065Z,7.34
2023-04-20T22:07:02.620Z,7.38
2023-04-20T22:09:30.366Z,7.34
2023-04-20T22:12:01.767Z,7.40
2023-04-20T22:14:30.940Z,7.41
2023-04-20T22:16:59.369Z,7.32
2023-04-20T22:19:26.874Z,7.24
2023-04-20T22:21:54.601Z,7.28
2023-04-20T22:24:22.062Z,7.34
2023-04-20T22:26:49.613Z,7.31
2023-04-20T22:29:17.188Z,7.28
2023-04-20T22:31:46.125Z,7.45
2023-04-20T22:34:13.729Z,7.43
2023-04-20T22:36:41.576Z,7.37
2023-04-20T22:39:09.145Z,7.29
2023-04-20T22:41:36.688Z,7.32
2023-04-20T22:44:04.255Z,7.41
2023-04-20T22:46:31.795Z,7.35
2023-04-20T22:49:01.002Z,7.33
2023-04-20T22:51:28.956Z,7.29
2023-04-20T22:53:56.669Z,7.47
2023-04-20T22:56:24.995Z,7.31
2023-04-20T22:58:52.455Z,7.26
2023-04-20T23:01:19.969Z,7.22
2023-04-20T23:03:47.543Z,7.27
2023-04-20T23:06:18.806Z,7.25
2023-04-20T23:08:46.880Z,7.16
2023-04-20T23:11:16.346Z,7.07
2023-04-20T23:13:44.315Z,7.14
2023-04-20T23:16:11.856Z,7.19
2023-04-20T23:18:39.457Z,7.15
2023-04-20T23:21:07.107Z,7.13
2023-04-20T23:23:35.901Z,7.20
2023-04-20T23:26:03.402Z,7.07
2023-04-20T23:28:30.906Z,7.04
2023-04-20T23:30:58.557Z,7.05
2023-04-20T23:33:26.428Z,6.93
2023-04-20T23:35:53.901Z,6.90
2023-04-20T23:38:21.399Z,7.10
2023-04-20T23:40:50.212Z,7.00
2023-04-20T23:43:17.704Z,6.96
2023-04-20T23:45:45.249Z,6.91
2023-04-20T23:48:12.781Z,6.79
2023-04-20T23:50:40.242Z,6.81
2023-04-20T23:53:09.588Z,6.78
2023-04-20T23:55:37.097Z,6.77
2023-04-20T23:58:05.894Z,6.88
